createdAt,value
2023-05-10T00:00:09.429Z,3.63
2023-05-10T00:05:08.895Z,3.03
2023-05-10T00:10:08.923Z,2.30
2023-05-10T00:15:08.006Z,1.80
2023-05-10T00:20:08.023Z,1.95
2023-05-10T00:25:08.060Z,2.15
2023-05-10T00:30:08.097Z,2.40
2023-05-10T00:35:08.130Z,1.88
2023-05-10T00:40:08.138Z,1.73
2023-05-10T00:45:08.126Z,2.17
2023-05-10T00:50:08.182Z,2.20
2023-05-10T00:55:08.172Z,2.55
2023-05-10T01:00:08.191Z,3.15
2023-05-10T01:05:08.858Z,4.32
2023-05-10T01:10:07.956Z,6.13
2023-05-10T01:15:07.942Z,6.30
2023-05-10T01:20:07.948Z,7.07
2023-05-10T01:25:07.964Z,7.25
2023-05-10T01:30:15.694Z,7.07
2023-05-10T01:35:08.904Z,7.40
2023-05-10T01:40:08.949Z,8.68
2023-05-10T01:45:07.930Z,12.05
2023-05-10T01:50:16.060Z,10.13
2023-05-10T01:55:08.365Z,11.75
2023-05-10T02:00:08.363Z,13.45
2023-05-10T02:05:08.370Z,13.00
2023-05-10T02:10:09.728Z,12.75
2023-05-10T02:15:10.735Z,15.38
2023-05-10T02:20:08.727Z,14.32
2023-05-10T02:25:08.732Z,16.70
2023-05-10T02:30:08.719Z,16.05
2023-05-10T02:35:08.702Z,16.35
2023-05-10T02:40:08.672Z,17.40
2023-05-10T02:45:08.682Z,18.13
2023-05-10T02:50:08.700Z,17.23
2023-05-10T02:55:08.710Z,17.70
2023-05-10T03:00:08.718Z,17.27
2023-05-10T03:05:08.724Z,18.25
2023-05-10T03:10:08.723Z,18.88
2023-05-10T03:15:08.725Z,16.58
2023-05-10T03:20:08.773Z,16.50
2023-05-10T03:25:08.780Z,17.00
2023-05-10T03:30:08.749Z,20.23
2023-05-10T03:35:08.775Z,18.02
2023-05-10T03:40:08.779Z,18.30
2023-05-10T03:45:08.761Z,19.23
2023-05-10T03:50:08.798Z,18.65
2023-05-10T03:55:08.887Z,17.92
2023-05-10T04:00:08.902Z,17.77
2023-05-10T04:05:03.039Z,20.13
2023-05-10T04:10:02.156Z,23.13
2023-05-10T04:15:02.222Z,20.58
2023-05-10T04:20:02.326Z,20.42
2023-05-10T04:25:02.311Z,23.30
2023-05-10T04:30:02.398Z,22.17
2023-05-10T04:35:02.521Z,21.33
2023-05-10T04:40:22.437Z,20.80
2023-05-10T04:45:08.438Z,22.17
2023-05-10T04:50:08.433Z,22.23
2023-05-10T04:55:08.433Z,22.85
2023-05-10T05:00:08.432Z,22.60
2023-05-10T05:05:08.421Z,21.73
2023-05-10T05:10:08.428Z,22.08
2023-05-10T05:15:09.762Z,23.20
2023-05-10T05:20:08.954Z,22.48
2023-05-10T05:25:07.998Z,24.20
2023-05-10T05:30:08.015Z,22.73
2023-05-10T05:35:08.004Z,21.65
2023-05-10T05:40:08.015Z,22.63
2023-05-10T05:45:08.017Z,25.35
2023-05-10T05:50:08.040Z,22.85
2023-05-10T05:55:08.117Z,23.13
2023-05-10T06:00:08.144Z,24.83
2023-05-10T06:05:08.133Z,23.00
2023-05-10T06:10:08.120Z,22.05
2023-05-10T06:15:08.116Z,22.65
2023-05-10T06:20:08.136Z,21.88
2023-05-10T06:25:08.152Z,20.30
2023-05-10T06:30:12.833Z,21.02
2023-05-10T06:35:08.533Z,22.30
2023-05-10T06:40:08.648Z,23.27
2023-05-10T06:45:08.695Z,20.48
2023-05-10T06:50:08.712Z,21.75
2023-05-10T06:55:08.764Z,21.20
2023-05-10T07:00:08.801Z,22.00
2023-05-10T07:05:08.879Z,23.40
2023-05-10T07:10:07.975Z,19.55
2023-05-10T07:15:08.019Z,21.70
2023-05-10T07:20:08.028Z,22.20
2023-05-10T07:25:08.008Z,19.10
2023-05-10T07:30:08.026Z,21.55
2023-05-10T07:35:08.027Z,20.90
2023-05-10T07:40:08.117Z,18.15
2023-05-10T07:45:08.124Z,16.67
2023-05-10T07:50:08.173Z,16.73
2023-05-10T07:55:02.350Z,16.85
2023-05-10T08:00:02.528Z,13.93
2023-05-10T08:05:02.798Z,13.90
2023-05-10T08:10:02.925Z,14.68
2023-05-10T08:15:03.050Z,14.70
2023-05-10T08:20:02.428Z,15.43
2023-05-10T08:25:02.581Z,15.85
2023-05-10T08:30:02.719Z,15.88
2023-05-10T08:35:02.935Z,14.90
2023-05-10T08:40:02.085Z,15.15
2023-05-10T08:45:02.179Z,14.77
2023-05-10T08:50:02.221Z,15.20
2023-05-10T08:55:02.285Z,15.63
2023-05-10T09:00:02.420Z,14.15
2023-05-10T09:05:02.674Z,11.30
2023-05-10T09:10:02.864Z,11.88
2023-05-10T09:15:03.106Z,14.13
2023-05-10T09:20:02.402Z,12.35
2023-05-10T09:25:02.624Z,12.82
2023-05-10T09:30:02.980Z,13.40
2023-05-10T09:35:02.119Z,14.63
2023-05-10T09:40:02.310Z,13.13
2023-05-10T09:45:02.379Z,15.32
2023-05-10T09:50:02.599Z,14.32
2023-05-10T09:55:02.804Z,14.18
2023-05-10T10:00:03.026Z,15.75
2023-05-10T10:05:02.202Z,14.48
2023-05-10T10:10:02.419Z,15.90
2023-05-10T10:15:02.512Z,14.80
2023-05-10T10:20:02.667Z,15.52
2023-05-10T10:25:03.224Z,15.65
2023-05-10T10:30:02.688Z,16.63
2023-05-10T10:35:02.832Z,17.15
2023-05-10T10:40:02.972Z,17.80
2023-05-10T10:45:02.107Z,17.67
2023-05-10T10:50:02.353Z,18.35
2023-05-10T10:55:11.014Z,18.48
2023-05-10T11:00:02.256Z,18.25
2023-05-10T11:05:02.556Z,18.17
2023-05-10T11:10:02.696Z,17.08
2023-05-10T11:15:02.828Z,15.65
2023-05-10T11:20:03.998Z,16.63
2023-05-10T11:25:02.092Z,17.85
2023-05-10T11:30:13.640Z,15.00
2023-05-10T11:35:02.947Z,13.77
2023-05-10T11:40:02.109Z,14.40
2023-05-10T11:45:02.312Z,12.43
2023-05-10T11:50:02.306Z,10.65
2023-05-10T11:55:02.567Z,10.00
2023-05-10T11:55:33.706Z,10.00
2023-05-10T12:00:00.834Z,9.25
2023-05-10T12:00:02.585Z,9.25
2023-05-10T12:05:02.708Z,9.23
2023-05-10T12:10:02.844Z,9.38
2023-05-10T12:15:02.853Z,9.10
2023-05-10T12:20:02.903Z,8.55
2023-05-10T12:25:03.012Z,9.60
2023-05-10T12:30:02.177Z,8.38
2023-05-10T12:35:09.696Z,8.65
2023-05-10T12:40:02.829Z,9.63
2023-05-10T12:45:02.890Z,9.32
2023-05-10T12:50:02.927Z,10.25
2023-05-10T12:55:02.999Z,10.57
2023-05-10T13:00:02.169Z,11.02
2023-05-10T13:05:02.395Z,9.68
2023-05-10T13:10:02.532Z,10.40
2023-05-10T13:15:02.611Z,12.02
2023-05-10T13:20:02.755Z,9.50
2023-05-10T13:25:02.748Z,10.40
2023-05-10T13:30:02.834Z,9.93
2023-05-10T13:35:03.712Z,11.65
2023-05-10T13:40:02.745Z,9.52
2023-05-10T13:45:02.847Z,8.00
2023-05-10T13:50:03.041Z,7.85
2023-05-10T13:55:02.080Z,7.70
2023-05-10T14:00:02.568Z,7.63
2023-05-10T14:05:02.706Z,6.68
2023-05-10T14:10:02.801Z,6.80
2023-05-10T14:15:02.983Z,7.18
2023-05-10T14:20:02.027Z,6.30
2023-05-10T14:25:02.110Z,7.07
2023-05-10T14:30:02.253Z,6.80
2023-05-10T14:35:02.392Z,8.18
2023-05-10T14:40:02.438Z,7.53
2023-05-10T14:45:02.622Z,7.20
2023-05-10T14:50:02.762Z,6.50
2023-05-10T14:55:02.889Z,7.85
2023-05-10T15:00:03.063Z,7.78
2023-05-10T15:05:02.545Z,7.13
2023-05-10T15:10:03.007Z,6.50
2023-05-10T15:15:02.163Z,6.97
2023-05-10T15:20:02.354Z,6.80
2023-05-10T15:25:02.579Z,6.90
2023-05-10T15:30:02.744Z,6.15
2023-05-10T15:35:02.846Z,6.60
2023-05-10T15:40:02.990Z,7.13
2023-05-10T15:45:02.208Z,8.27
2023-05-10T15:50:02.353Z,7.65
2023-05-10T15:55:02.492Z,7.30
2023-05-10T16:00:02.827Z,5.97
2023-05-10T16:05:02.942Z,5.38
2023-05-10T16:10:02.250Z,4.85
2023-05-10T16:15:02.316Z,5.57
2023-05-10T16:20:02.457Z,4.88
2023-05-10T16:25:04.541Z,4.63
2023-05-10T16:30:04.486Z,5.40
2023-05-10T16:35:02.570Z,5.57
2023-05-10T16:40:03.661Z,5.72
2023-05-10T16:45:03.117Z,5.57
2023-05-10T16:50:02.145Z,5.97
2023-05-10T16:55:02.138Z,5.90
2023-05-10T17:00:02.344Z,6.03
2023-05-10T17:05:02.458Z,6.03
2023-05-10T17:10:02.536Z,6.18
2023-05-10T17:15:02.692Z,6.22
2023-05-10T17:20:02.916Z,5.32
2023-05-10T17:25:01.998Z,6.00
2023-05-10T17:30:02.109Z,6.38
2023-05-10T17:35:02.342Z,5.82
2023-05-10T17:40:12.426Z,5.75
2023-05-10T17:45:02.533Z,5.85
2023-05-10T17:50:02.567Z,5.25
2023-05-10T17:55:02.705Z,5.15
2023-05-10T18:00:02.830Z,5.38
2023-05-10T18:05:04.133Z,6.03
2023-05-10T18:10:02.310Z,6.03
2023-05-10T18:15:02.510Z,5.70
2023-05-10T18:20:02.662Z,4.65
2023-05-10T18:25:02.943Z,5.00
2023-05-10T18:30:02.164Z,5.05
2023-05-10T18:35:02.296Z,5.22
2023-05-10T18:40:02.416Z,4.43
2023-05-10T18:45:02.460Z,4.28
2023-05-10T18:50:02.519Z,3.85
2023-05-10T18:55:02.603Z,4.15
2023-05-10T19:00:02.720Z,4.32
2023-05-10T19:05:02.834Z,3.88
2023-05-10T19:10:02.890Z,4.25
2023-05-10T19:15:03.091Z,4.07
2023-05-10T19:20:02.626Z,3.88
2023-05-10T19:25:02.113Z,4.65
2023-05-10T19:30:02.158Z,4.43
2023-05-10T19:35:02.321Z,4.90
2023-05-10T19:40:02.403Z,5.43
2023-05-10T19:45:02.417Z,4.80
2023-05-10T19:50:02.433Z,4.97
2023-05-10T19:55:02.649Z,5.10
2023-05-10T20:00:02.800Z,5.82
2023-05-10T20:05:03.002Z,5.82
2023-05-10T20:10:02.119Z,5.85
2023-05-10T20:15:02.349Z,6.32
2023-05-10T20:20:02.653Z,6.38
2023-05-10T20:25:02.743Z,6.60
2023-05-10T20:30:02.906Z,6.45
2023-05-10T20:35:03.064Z,6.38
2023-05-10T20:40:02.120Z,6.30
2023-05-10T20:45:02.272Z,6.13
2023-05-10T20:50:02.360Z,6.00
2023-05-10T20:55:02.533Z,5.30
2023-05-10T21:00:02.709Z,6.47
2023-05-10T21:05:15.772Z,6.25
2023-05-10T21:10:08.862Z,6.50
2023-05-10T21:15:08.868Z,6.18
2023-05-10T21:20:08.882Z,6.30
2023-05-10T21:25:08.918Z,6.10
2023-05-10T21:30:07.954Z,6.68
2023-05-10T21:35:07.941Z,7.28
2023-05-10T21:40:07.987Z,6.28
2023-05-10T21:45:08.022Z,6.35
2023-05-10T21:50:08.003Z,6.95
2023-05-10T21:55:08.023Z,6.20
2023-05-10T22:00:08.044Z,6.03
2023-05-10T22:05:08.085Z,7.32
2023-05-10T22:10:08.076Z,6.43
2023-05-10T22:15:11.103Z,6.82
2023-05-10T22:20:08.261Z,6.90
2023-05-10T22:25:08.255Z,6.70
2023-05-10T22:30:08.313Z,6.53
2023-05-10T22:35:08.371Z,8.60
2023-05-10T22:40:08.588Z,7.25
2023-05-10T22:45:08.554Z,7.35
2023-05-10T22:50:08.589Z,7.68
2023-05-10T22:55:08.596Z,7.93
2023-05-10T23:01:15.800Z,7.65
2023-05-10T23:05:08.999Z,8.27
2023-05-10T23:10:08.183Z,8.02
2023-05-10T23:15:08.223Z,8.52
2023-05-10T23:20:08.186Z,8.30
2023-05-10T23:25:08.188Z,8.88
2023-05-10T23:30:08.181Z,7.80
2023-05-10T23:35:08.158Z,9.38
2023-05-10T23:40:08.220Z,8.85
2023-05-10T23:50:08.163Z,8.57
